createdAt,value
2022-09-27T00:01:54.098Z,9.91
2022-09-27T00:03:56.165Z,9.90
2022-09-27T00:06:05.634Z,9.87
2022-09-27T00:08:07.845Z,9.82
2022-09-27T00:10:09.814Z,9.80
2022-09-27T00:12:11.767Z,9.69
2022-09-27T00:14:15.910Z,9.72
2022-09-27T00:16:17.961Z,9.77
2022-09-27T00:18:20.007Z,9.74
2022-09-27T00:20:21.996Z,9.71
2022-09-27T00:22:24.456Z,9.69
2022-09-27T00:24:26.432Z,9.68
2022-09-27T00:26:28.530Z,9.64
2022-09-27T00:28:31.153Z,9.62
2022-09-27T00:30:33.094Z,9.59
2022-09-27T00:32:35.065Z,9.49
2022-09-27T00:34:37.430Z,9.47
2022-09-27T00:36:39.387Z,9.40
2022-09-27T00:38:41.767Z,9.32
2022-09-27T00:40:43.785Z,9.28
2022-09-27T00:42:45.873Z,9.25
2022-09-27T00:45:12.991Z,9.26
2022-09-27T00:47:28.954Z,9.26
2022-09-27T00:49:38.018Z,9.13
2022-09-27T00:51:40.257Z,9.14
2022-09-27T00:53:46.670Z,9.20
2022-09-27T00:55:59.039Z,9.13
2022-09-27T00:58:01.420Z,9.04
2022-09-27T01:00:09.712Z,9.04
2022-09-27T01:02:11.766Z,8.93
2022-09-27T01:04:14.943Z,8.96
2022-09-27T01:06:17.400Z,8.97
2022-09-27T01:08:19.373Z,8.98
2022-09-27T01:10:22.912Z,8.96
2022-09-27T01:12:42.947Z,8.96
2022-09-27T01:15:09.631Z,8.91
2022-09-27T01:17:55.733Z,8.92
2022-09-27T01:20:16.916Z,8.97
2022-09-27T01:23:03.659Z,8.98
2022-09-27T01:25:26.868Z,8.98
2022-09-27T01:28:01.641Z,8.90
2022-09-27T01:30:45.364Z,8.80
2022-09-27T01:33:26.253Z,8.82
2022-09-27T01:35:40.485Z,8.76
2022-09-27T01:38:38.868Z,8.73
2022-09-27T01:40:51.414Z,8.70
2022-09-27T01:43:15.524Z,8.70
2022-09-27T01:45:38.050Z,8.68
2022-09-27T01:48:13.490Z,8.71
2022-09-27T01:50:22.897Z,8.64
2022-09-27T01:52:31.426Z,8.62
2022-09-27T01:54:45.109Z,8.53
2022-09-27T01:56:49.984Z,8.51
2022-09-27T01:59:14.503Z,8.53
2022-09-27T02:01:16.683Z,8.61
2022-09-27T02:03:34.571Z,8.57
2022-09-27T02:06:00.858Z,8.55
2022-09-27T02:08:10.674Z,8.55
2022-09-27T02:10:31.188Z,8.50
2022-09-27T02:12:37.752Z,8.56
2022-09-27T02:14:46.097Z,8.52
2022-09-27T02:16:53.004Z,8.52
2022-09-27T02:19:30.981Z,8.58
2022-09-27T02:21:45.248Z,8.45
2022-09-27T02:23:57.330Z,8.46
2022-09-27T02:26:33.220Z,8.40
2022-09-27T02:29:05.967Z,8.38
2022-09-27T02:31:08.027Z,8.41
2022-09-27T02:33:10.356Z,8.45
2022-09-27T02:35:41.353Z,8.42
2022-09-27T02:37:43.290Z,8.33
2022-09-27T02:39:45.308Z,8.26
2022-09-27T02:41:47.313Z,8.28
2022-09-27T02:44:00.864Z,8.27
2022-09-27T02:46:24.081Z,8.26
2022-09-27T02:48:41.739Z,8.24
2022-09-27T02:51:23.179Z,8.21
2022-09-27T02:53:45.722Z,8.02
2022-09-27T02:55:58.384Z,8.06
2022-09-27T02:58:24.140Z,8.05
2022-09-27T03:00:48.589Z,8.02
2022-09-27T03:03:17.171Z,8.01
2022-09-27T03:05:23.364Z,8.03
2022-09-27T03:07:25.579Z,7.95
2022-09-27T03:09:41.521Z,7.98
2022-09-27T03:11:43.492Z,7.98
2022-09-27T03:14:07.431Z,7.98
2022-09-27T03:16:07.694Z,7.97
2022-09-27T03:18:09.675Z,7.99
2022-09-27T03:20:11.657Z,8.01
2022-09-27T03:22:13.624Z,7.95
2022-09-27T03:24:15.581Z,7.97
2022-09-27T03:26:17.534Z,7.96
2022-09-27T03:28:19.572Z,7.99
2022-09-27T03:30:21.546Z,7.95
2022-09-27T03:32:23.558Z,7.98
2022-09-27T03:34:25.529Z,7.95
2022-09-27T03:36:27.526Z,7.97
2022-09-27T03:38:29.484Z,7.94
2022-09-27T03:40:31.520Z,7.91
2022-09-27T03:42:33.651Z,7.89
2022-09-27T03:44:35.645Z,7.81
2022-09-27T03:46:37.764Z,7.83
2022-09-27T03:48:39.784Z,7.80
2022-09-27T03:50:41.764Z,7.82
2022-09-27T03:52:44.145Z,7.83
2022-09-27T03:54:46.143Z,7.76
2022-09-27T03:56:48.190Z,7.72
2022-09-27T03:58:50.200Z,7.73
2022-09-27T04:00:52.131Z,7.73
2022-09-27T04:02:54.153Z,7.68
2022-09-27T04:04:56.168Z,7.72
2022-09-27T04:06:59.170Z,7.67
2022-09-27T04:09:01.999Z,7.71
2022-09-27T04:11:03.985Z,7.73
2022-09-27T04:13:06.150Z,7.77
2022-09-27T04:15:08.893Z,7.75
2022-09-27T04:17:10.866Z,7.66
2022-09-27T04:19:13.273Z,7.74
2022-09-27T04:21:15.337Z,7.65
2022-09-27T04:23:17.378Z,7.65
2022-09-27T04:25:19.329Z,7.63
2022-09-27T04:27:22.561Z,7.64
2022-09-27T04:29:25.006Z,7.60
2022-09-27T04:31:27.029Z,7.57
2022-09-27T04:33:29.031Z,7.55
2022-09-27T04:35:49.665Z,7.55
2022-09-27T04:37:51.635Z,7.57
2022-09-27T04:39:53.609Z,7.55
2022-09-27T04:41:55.745Z,7.58
2022-09-27T04:43:59.633Z,7.59
2022-09-27T04:46:01.780Z,7.64
2022-09-27T04:48:03.773Z,7.68
2022-09-27T04:50:06.215Z,7.72
2022-09-27T04:52:08.209Z,7.74
2022-09-27T04:54:10.386Z,7.77
2022-09-27T04:56:13.543Z,7.79
2022-09-27T04:58:15.625Z,7.83
2022-09-27T05:00:17.692Z,7.88
2022-09-27T05:02:19.735Z,7.94
2022-09-27T05:04:21.921Z,7.94
2022-09-27T05:06:23.939Z,8.01
2022-09-27T05:08:25.975Z,8.05
2022-09-27T05:10:27.909Z,8.11
2022-09-27T05:12:29.875Z,8.11
2022-09-27T05:14:31.840Z,8.12
2022-09-27T05:16:34.547Z,8.18
2022-09-27T05:18:36.456Z,8.18
2022-09-27T05:20:39.024Z,8.16
2022-09-27T05:22:41.109Z,8.22
2022-09-27T05:24:43.086Z,8.22
2022-09-27T05:26:47.062Z,8.20
2022-09-27T05:28:49.111Z,8.21
2022-09-27T05:30:51.221Z,8.20
2022-09-27T05:32:53.788Z,8.19
2022-09-27T05:34:55.761Z,8.21
2022-09-27T05:36:57.721Z,8.25
2022-09-27T05:38:59.691Z,8.25
2022-09-27T05:41:01.854Z,8.29
2022-09-27T05:43:03.813Z,8.35
2022-09-27T05:45:07.216Z,8.37
2022-09-27T05:47:09.182Z,8.32
2022-09-27T05:49:11.128Z,8.30
2022-09-27T05:51:14.442Z,8.35
2022-09-27T05:53:16.463Z,8.35
2022-09-27T05:55:18.515Z,8.36
2022-09-27T05:57:20.461Z,8.38
2022-09-27T05:59:22.432Z,8.39
2022-09-27T06:01:26.640Z,8.39
2022-09-27T06:03:28.615Z,8.41
2022-09-27T06:05:34.501Z,8.42
2022-09-27T06:07:37.904Z,8.47
2022-09-27T06:09:39.947Z,8.45
2022-09-27T06:11:45.500Z,8.50
2022-09-27T06:13:47.585Z,8.51
2022-09-27T06:15:51.063Z,8.56
2022-09-27T06:17:52.996Z,8.59
2022-09-27T06:19:54.962Z,8.64
2022-09-27T06:21:57.000Z,8.68
2022-09-27T06:23:59.830Z,8.74
2022-09-27T06:26:06.449Z,8.77
2022-09-27T06:28:09.910Z,8.88
2022-09-27T06:30:16.858Z,8.98
2022-09-27T06:32:21.534Z,9.07
2022-09-27T06:34:23.573Z,9.14
2022-09-27T06:36:25.592Z,9.26
2022-09-27T06:38:27.545Z,9.35
2022-09-27T06:40:29.545Z,9.45
2022-09-27T06:42:31.580Z,9.49
2022-09-27T06:44:33.532Z,9.58
2022-09-27T06:46:35.539Z,9.60
2022-09-27T06:48:38.579Z,9.65
2022-09-27T06:50:42.156Z,9.73
2022-09-27T06:52:49.922Z,9.77
2022-09-27T06:54:51.879Z,9.84
2022-09-27T06:56:53.869Z,9.89
2022-09-27T06:59:14.542Z,9.94
2022-09-27T07:01:18.295Z,9.98
2022-09-27T07:03:23.074Z,9.97
2022-09-27T07:05:26.250Z,10.01
2022-09-27T07:07:29.211Z,10.03
2022-09-27T07:09:31.171Z,10.06
2022-09-27T07:11:37.954Z,10.12
2022-09-27T07:13:43.006Z,10.22
2022-09-27T07:15:45.154Z,10.23
2022-09-27T07:17:58.097Z,10.21
2022-09-27T07:20:00.105Z,10.18
2022-09-27T07:22:03.010Z,10.20
2022-09-27T07:24:05.073Z,10.24
2022-09-27T07:26:10.505Z,10.19
2022-09-27T07:28:22.006Z,10.24
2022-09-27T07:30:24.457Z,10.20
2022-09-27T07:32:26.477Z,10.12
2022-09-27T07:34:28.454Z,10.13
2022-09-27T07:36:31.170Z,10.10
2022-09-27T07:38:33.121Z,10.04
2022-09-27T07:40:37.104Z,10.16
2022-09-27T07:42:39.209Z,10.17
2022-09-27T07:44:41.189Z,10.19
2022-09-27T07:46:43.168Z,10.23
2022-09-27T07:48:46.608Z,10.25
2022-09-27T07:50:48.669Z,10.29
2022-09-27T07:52:51.261Z,10.27
2022-09-27T07:54:53.200Z,10.30
2022-09-27T07:56:56.004Z,10.37
2022-09-27T07:58:57.951Z,10.45
2022-09-27T08:01:01.022Z,10.45
2022-09-27T08:03:08.088Z,10.45
2022-09-27T08:05:11.254Z,10.46
2022-09-27T08:07:14.484Z,10.48
2022-09-27T08:09:16.715Z,10.50
2022-09-27T08:11:19.204Z,10.50
2022-09-27T08:13:21.440Z,10.50
2022-09-27T08:15:23.427Z,10.54
2022-09-27T08:17:25.415Z,10.53
2022-09-27T08:19:27.392Z,10.59
2022-09-27T08:21:30.971Z,10.58
2022-09-27T08:23:32.952Z,10.63
2022-09-27T08:25:35.061Z,10.67
2022-09-27T08:27:37.071Z,10.67
2022-09-27T08:29:41.950Z,10.68
2022-09-27T08:31:44.157Z,10.76
2022-09-27T08:33:53.246Z,10.73
2022-09-27T08:35:55.184Z,10.77
2022-09-27T08:37:59.837Z,10.77
2022-09-27T08:40:02.633Z,10.83
2022-09-27T08:42:10.536Z,10.78
2022-09-27T08:44:47.167Z,10.79
2022-09-27T08:47:00.633Z,10.82
2022-09-27T08:49:26.789Z,10.83
2022-09-27T08:51:30.328Z,10.86
2022-09-27T08:53:49.357Z,10.85
2022-09-27T08:55:56.197Z,10.90
2022-09-27T08:57:59.308Z,10.90
2022-09-27T09:00:11.306Z,10.94
2022-09-27T09:02:21.983Z,10.95
2022-09-27T09:04:35.047Z,10.97
2022-09-27T09:07:01.560Z,10.95
2022-09-27T09:09:15.066Z,11.02
2022-09-27T09:12:00.166Z,11.10
2022-09-27T09:14:52.146Z,11.11
2022-09-27T09:17:11.594Z,11.14
2022-09-27T09:19:29.476Z,11.19
2022-09-27T09:22:14.231Z,11.22
2022-09-27T09:24:47.294Z,11.28
2022-09-27T09:27:00.865Z,11.27
2022-09-27T09:29:55.137Z,11.31
2022-09-27T09:32:27.374Z,11.38
2022-09-27T09:34:43.651Z,11.44
2022-09-27T09:36:56.998Z,11.46
2022-09-27T09:39:26.913Z,11.48
2022-09-27T09:42:03.178Z,11.43
2022-09-27T09:44:22.043Z,11.44
2022-09-27T09:46:46.793Z,11.44
2022-09-27T09:49:11.147Z,11.44
2022-09-27T09:51:22.757Z,11.46
2022-09-27T09:53:42.857Z,11.55
2022-09-27T09:55:51.217Z,11.56
2022-09-27T09:58:13.070Z,11.62
2022-09-27T10:00:18.098Z,11.68
2022-09-27T10:02:23.194Z,11.71
2022-09-27T10:04:29.092Z,11.74
2022-09-27T10:06:31.709Z,11.80
2022-09-27T10:08:33.833Z,11.82
2022-09-27T10:10:39.009Z,11.91
2022-09-27T10:12:41.412Z,11.96
2022-09-27T10:14:48.728Z,12.01
2022-09-27T10:17:04.549Z,12.08
2022-09-27T10:19:07.183Z,12.07
2022-09-27T10:21:28.765Z,12.13
2022-09-27T10:23:31.412Z,12.17
2022-09-27T10:25:50.060Z,12.18
2022-09-27T10:27:53.153Z,12.19
2022-09-27T10:30:01.258Z,12.19
2022-09-27T10:32:04.649Z,12.28
2022-09-27T10:34:06.623Z,12.25
2022-09-27T10:36:32.811Z,12.28
2022-09-27T10:38:35.814Z,12.32
2022-09-27T10:40:37.801Z,12.35
2022-09-27T10:42:39.865Z,12.43
2022-09-27T10:44:41.799Z,12.48
2022-09-27T10:46:44.644Z,12.50
2022-09-27T10:48:46.644Z,12.57
2022-09-27T10:51:08.536Z,12.67
2022-09-27T10:53:15.884Z,12.77
2022-09-27T10:55:25.771Z,12.83
2022-09-27T10:57:30.783Z,12.84
2022-09-27T10:59:37.265Z,12.92
2022-09-27T11:01:50.301Z,12.95
2022-09-27T11:03:56.899Z,12.85
2022-09-27T11:05:59.658Z,12.82
2022-09-27T11:08:03.499Z,12.86
2022-09-27T11:10:29.950Z,12.86
2022-09-27T11:12:35.825Z,12.87
2022-09-27T11:14:38.080Z,12.93
2022-09-27T11:17:11.173Z,13.02
2022-09-27T11:19:50.832Z,13.00
2022-09-27T11:22:35.951Z,13.02
2022-09-27T11:25:15.086Z,13.00
2022-09-27T11:27:39.872Z,12.99
2022-09-27T11:30:18.211Z,12.95
2022-09-27T11:32:29.278Z,12.99
2022-09-27T11:35:02.646Z,13.03
2022-09-27T11:37:10.405Z,13.07
2022-09-27T11:40:19.799Z,13.09
2022-09-27T11:42:57.004Z,13.12
2022-09-27T11:45:41.035Z,13.21
2022-09-27T11:48:28.192Z,13.28
2022-09-27T11:51:08.746Z,13.32
2022-09-27T11:53:51.069Z,13.35
2022-09-27T11:56:13.925Z,13.45
2022-09-27T11:58:31.275Z,13.50
2022-09-27T12:01:17.620Z,13.52
2022-09-27T12:03:42.533Z,13.65
2022-09-27T12:06:06.362Z,13.69
2022-09-27T12:08:48.850Z,13.76
2022-09-27T12:10:54.679Z,13.84
2022-09-27T12:12:57.746Z,13.90
2022-09-27T12:15:06.881Z,13.95
2022-09-27T12:17:19.165Z,13.97
2022-09-27T12:19:36.088Z,13.98
2022-09-27T12:21:38.135Z,13.96
2022-09-27T12:23:52.385Z,13.93
2022-09-27T12:25:59.079Z,13.93
2022-09-27T12:28:12.732Z,13.99
2022-09-27T12:30:15.182Z,13.94
2022-09-27T12:32:30.102Z,13.96
2022-09-27T12:34:55.839Z,13.99
2022-09-27T12:37:29.641Z,14.06
2022-09-27T12:39:41.532Z,14.07
2022-09-27T12:41:49.239Z,14.06
2022-09-27T12:43:51.359Z,14.16
2022-09-27T12:46:08.359Z,14.18
2022-09-27T12:49:05.418Z,14.27
2022-09-27T12:51:15.966Z,14.38
2022-09-27T12:53:31.601Z,14.46
2022-09-27T12:55:58.481Z,14.58
2022-09-27T12:58:31.023Z,14.58
2022-09-27T13:00:58.460Z,14.67
2022-09-27T13:03:16.220Z,14.66
2022-09-27T13:05:37.710Z,14.72
2022-09-27T13:08:39.487Z,14.71
2022-09-27T13:10:52.988Z,14.71
2022-09-27T13:12:55.617Z,14.77
2022-09-27T13:15:17.565Z,14.72
2022-09-27T13:17:42.255Z,14.68
2022-09-27T13:19:45.566Z,14.73
2022-09-27T13:21:47.555Z,14.70
2022-09-27T13:23:50.856Z,14.66
2022-09-27T13:26:21.054Z,14.63
2022-09-27T13:28:29.482Z,14.65
2022-09-27T13:30:44.126Z,14.72
2022-09-27T13:33:10.919Z,14.66
2022-09-27T13:35:19.917Z,14.69
2022-09-27T13:37:54.253Z,14.73
2022-09-27T13:40:24.551Z,14.69
2022-09-27T13:42:35.414Z,14.71
2022-09-27T13:44:46.490Z,14.77
2022-09-27T13:46:55.687Z,14.71
2022-09-27T13:49:40.879Z,14.72
2022-09-27T13:51:51.666Z,14.76
2022-09-27T13:54:34.447Z,14.71
2022-09-27T13:56:46.737Z,14.72
2022-09-27T13:59:01.648Z,14.70
2022-09-27T14:01:15.664Z,14.68
2022-09-27T14:03:29.237Z,14.68
2022-09-27T14:05:41.563Z,14.65
2022-09-27T14:07:45.044Z,14.61
2022-09-27T14:09:49.387Z,14.67
2022-09-27T14:11:58.447Z,14.71
2022-09-27T14:14:02.312Z,14.64
2022-09-27T14:16:05.748Z,14.54
2022-09-27T14:18:09.368Z,14.41
2022-09-27T14:21:12.181Z,14.32
2022-09-27T14:23:24.067Z,14.32
2022-09-27T14:25:26.160Z,14.27
2022-09-27T14:27:35.520Z,14.19
2022-09-27T14:30:15.100Z,14.06
2022-09-27T14:32:25.960Z,14.09
2022-09-27T14:34:37.247Z,14.04
2022-09-27T14:36:57.989Z,13.96
2022-09-27T14:39:00.200Z,13.86
2022-09-27T14:41:03.704Z,13.83
2022-09-27T14:43:05.721Z,13.80
2022-09-27T14:45:32.553Z,13.75
2022-09-27T14:47:34.604Z,13.75
2022-09-27T14:49:36.552Z,13.75
2022-09-27T14:51:38.686Z,13.74
2022-09-27T14:53:50.030Z,13.63
2022-09-27T14:55:54.280Z,13.53
2022-09-27T14:58:01.005Z,13.48
2022-09-27T15:00:36.374Z,13.33
2022-09-27T15:02:40.924Z,13.36
2022-09-27T15:04:46.801Z,13.36
2022-09-27T15:06:49.718Z,13.33
2022-09-27T15:08:51.644Z,13.34
2022-09-27T15:10:54.723Z,13.32
2022-09-27T15:13:00.051Z,13.36
2022-09-27T15:15:03.483Z,13.39
2022-09-27T15:17:06.691Z,13.39
2022-09-27T15:19:29.276Z,13.38
2022-09-27T15:21:36.890Z,13.39
2022-09-27T15:23:43.951Z,13.38
2022-09-27T15:26:18.772Z,13.34
2022-09-27T15:28:20.842Z,13.34
2022-09-27T15:30:34.903Z,13.30
2022-09-27T15:32:36.940Z,13.31
2022-09-27T15:34:38.929Z,13.32
2022-09-27T15:37:06.464Z,13.32
2022-09-27T15:39:10.324Z,13.29
2022-09-27T15:41:20.358Z,13.30
2022-09-27T15:43:52.639Z,13.29
2022-09-27T15:45:55.040Z,13.27
2022-09-27T15:47:57.066Z,13.26
2022-09-27T15:49:59.675Z,13.25
2022-09-27T15:52:03.337Z,13.19
2022-09-27T15:54:05.299Z,13.23
2022-09-27T15:56:07.288Z,13.15
2022-09-27T15:58:18.636Z,13.08
2022-09-27T16:00:20.849Z,13.08
2022-09-27T16:02:22.878Z,13.08
2022-09-27T16:04:26.409Z,13.03
2022-09-27T16:06:28.952Z,12.99
2022-09-27T16:08:30.957Z,12.92
2022-09-27T16:10:51.547Z,12.88
2022-09-27T16:12:53.569Z,12.82
2022-09-27T16:14:55.752Z,12.79
2022-09-27T16:17:00.801Z,12.76
2022-09-27T16:19:02.771Z,12.75
2022-09-27T16:21:05.094Z,12.72
2022-09-27T16:23:07.306Z,12.74
2022-09-27T16:25:09.400Z,12.74
2022-09-27T16:27:11.348Z,12.75
2022-09-27T16:29:15.134Z,12.67
2022-09-27T16:31:17.292Z,12.58
2022-09-27T16:33:19.365Z,12.58
2022-09-27T16:35:22.522Z,12.55
2022-09-27T16:37:24.602Z,12.61
2022-09-27T16:39:26.890Z,12.60
2022-09-27T16:41:28.880Z,12.45
2022-09-27T16:43:31.907Z,12.41
2022-09-27T16:45:36.575Z,12.42
2022-09-27T16:47:38.789Z,12.47
2022-09-27T16:49:59.476Z,12.48
2022-09-27T16:52:01.672Z,12.47
2022-09-27T16:54:05.782Z,12.48
2022-09-27T16:56:07.807Z,12.37
2022-09-27T16:58:09.755Z,12.38
2022-09-27T17:00:12.741Z,12.35
2022-09-27T17:02:14.754Z,12.32
2022-09-27T17:04:16.929Z,12.33
2022-09-27T17:06:19.689Z,12.30
2022-09-27T17:08:26.064Z,12.28
2022-09-27T17:10:28.644Z,12.32
2022-09-27T17:12:32.557Z,12.30
2022-09-27T17:14:34.556Z,12.28
2022-09-27T17:16:36.529Z,12.19
2022-09-27T17:18:39.662Z,12.12
2022-09-27T17:20:41.698Z,12.13
2022-09-27T17:22:43.777Z,12.11
2022-09-27T17:24:45.902Z,12.08
2022-09-27T17:26:48.046Z,12.03
2022-09-27T17:28:50.190Z,12.02
2022-09-27T17:30:53.351Z,12.00
2022-09-27T17:32:55.628Z,12.03
2022-09-27T17:34:59.051Z,11.99
2022-09-27T17:37:01.279Z,12.01
2022-09-27T17:39:04.068Z,11.95
2022-09-27T17:41:08.742Z,11.82
2022-09-27T17:43:10.748Z,11.81
2022-09-27T17:45:12.814Z,11.81
2022-09-27T17:47:33.744Z,11.75
2022-09-27T17:49:54.604Z,11.75
2022-09-27T17:51:56.711Z,11.69
2022-09-27T17:53:59.055Z,11.66
2022-09-27T17:56:02.029Z,11.58
2022-09-27T17:58:05.004Z,11.56
2022-09-27T18:00:07.998Z,11.57
2022-09-27T18:02:10.466Z,11.58
2022-09-27T18:04:16.019Z,11.60
2022-09-27T18:06:18.113Z,11.57
2022-09-27T18:08:20.267Z,11.52
2022-09-27T18:10:22.284Z,11.46
2022-09-27T18:12:31.975Z,11.48
2022-09-27T18:14:34.178Z,11.49
2022-09-27T18:16:40.180Z,11.46
2022-09-27T18:18:44.768Z,11.40
2022-09-27T18:20:47.000Z,11.36
2022-09-27T18:22:49.101Z,11.34
2022-09-27T18:24:51.366Z,11.37
2022-09-27T18:26:56.004Z,11.37
2022-09-27T18:29:16.711Z,11.38
2022-09-27T18:31:20.234Z,11.33
2022-09-27T18:33:22.698Z,11.34
2022-09-27T18:35:25.160Z,11.28
2022-09-27T18:37:27.294Z,11.28
2022-09-27T18:39:29.610Z,11.27
2022-09-27T18:41:34.103Z,11.24
2022-09-27T18:43:38.871Z,11.23
2022-09-27T18:45:41.157Z,11.24
2022-09-27T18:47:43.262Z,11.28
2022-09-27T18:49:45.343Z,11.26
2022-09-27T18:51:48.525Z,11.30
2022-09-27T18:53:58.761Z,11.25
2022-09-27T18:56:08.801Z,11.20
2022-09-27T18:58:14.413Z,11.27
2022-09-27T19:00:17.537Z,11.25
2022-09-27T19:02:19.699Z,11.20
2022-09-27T19:04:26.017Z,11.22
2022-09-27T19:06:28.152Z,11.16
2022-09-27T19:08:30.184Z,11.15
2022-09-27T19:10:34.193Z,11.14
2022-09-27T19:12:36.263Z,11.17
2022-09-27T19:14:38.272Z,11.17
2022-09-27T19:16:40.471Z,11.17
2022-09-27T19:18:42.701Z,11.18
2022-09-27T19:20:44.723Z,11.18
2022-09-27T19:22:46.777Z,11.19
2022-09-27T19:24:48.734Z,11.16
2022-09-27T19:26:53.739Z,11.12
2022-09-27T19:28:56.026Z,11.08
2022-09-27T19:30:58.148Z,11.11
2022-09-27T19:33:01.462Z,11.12
2022-09-27T19:35:03.920Z,11.16
2022-09-27T19:37:05.927Z,11.15
2022-09-27T19:39:08.102Z,11.14
2022-09-27T19:41:11.972Z,11.16
2022-09-27T19:43:13.930Z,11.13
2022-09-27T19:45:16.037Z,11.11
2022-09-27T19:47:18.063Z,11.08
2022-09-27T19:49:20.607Z,11.07
2022-09-27T19:51:27.018Z,11.08
2022-09-27T19:53:32.173Z,11.03
2022-09-27T19:55:34.388Z,11.02
2022-09-27T19:57:36.385Z,11.02
2022-09-27T19:59:38.332Z,11.04
2022-09-27T20:01:42.013Z,11.00
2022-09-27T20:03:44.440Z,10.97
2022-09-27T20:05:55.355Z,10.98
2022-09-27T20:07:57.340Z,10.98
2022-09-27T20:09:59.285Z,10.91
2022-09-27T20:12:01.886Z,10.90
2022-09-27T20:14:03.884Z,10.92
2022-09-27T20:16:06.664Z,10.89
2022-09-27T20:18:09.408Z,10.82
2022-09-27T20:20:11.497Z,10.79
2022-09-27T20:22:13.511Z,10.78
2022-09-27T20:24:15.527Z,10.78
2022-09-27T20:26:18.889Z,10.73
2022-09-27T20:28:20.850Z,10.72
2022-09-27T20:30:22.840Z,10.74
2022-09-27T20:32:28.528Z,10.68
2022-09-27T20:34:31.248Z,10.64
2022-09-27T20:36:36.837Z,10.63
2022-09-27T20:38:43.382Z,10.64
2022-09-27T20:40:55.723Z,10.64
2022-09-27T20:42:57.886Z,10.66
2022-09-27T20:44:59.897Z,10.63
2022-09-27T20:47:02.077Z,10.63
2022-09-27T20:49:09.461Z,10.64
2022-09-27T20:51:14.499Z,10.63
2022-09-27T20:53:16.454Z,10.66
2022-09-27T20:55:18.415Z,10.65
2022-09-27T20:57:40.449Z,10.64
2022-09-27T20:59:47.317Z,10.59
2022-09-27T21:01:50.867Z,10.57
2022-09-27T21:03:57.997Z,10.57
2022-09-27T21:06:00.025Z,10.54
2022-09-27T21:08:01.985Z,10.52
2022-09-27T21:10:04.321Z,10.47
2022-09-27T21:12:06.304Z,10.48
2022-09-27T21:14:09.349Z,10.47
2022-09-27T21:16:14.494Z,10.48
2022-09-27T21:18:16.619Z,10.48
2022-09-27T21:20:19.473Z,10.46
2022-09-27T21:22:21.355Z,10.38
2022-09-27T21:24:23.324Z,10.42
2022-09-27T21:26:26.614Z,10.44
2022-09-27T21:28:36.188Z,10.44
2022-09-27T21:30:38.137Z,10.44
2022-09-27T21:32:40.103Z,10.41
2022-09-27T21:34:42.044Z,10.40
2022-09-27T21:36:44.014Z,10.44
2022-09-27T21:38:46.014Z,10.43
2022-09-27T21:41:03.248Z,10.43
2022-09-27T21:43:05.192Z,10.44
2022-09-27T21:45:07.906Z,10.47
2022-09-27T21:47:09.860Z,10.44
2022-09-27T21:49:11.952Z,10.41
2022-09-27T21:51:22.479Z,10.44
2022-09-27T21:53:24.470Z,10.38
2022-09-27T21:55:26.404Z,10.43
2022-09-27T21:57:28.369Z,10.42
2022-09-27T21:59:30.334Z,10.43
2022-09-27T22:01:33.530Z,10.46
2022-09-27T22:03:37.277Z,10.46
2022-09-27T22:05:49.871Z,10.44
2022-09-27T22:07:51.802Z,10.44
2022-09-27T22:09:53.763Z,10.44
2022-09-27T22:11:56.880Z,10.43
2022-09-27T22:13:59.231Z,10.45
2022-09-27T22:16:09.756Z,10.44
2022-09-27T22:18:11.760Z,10.46
2022-09-27T22:20:13.805Z,10.50
2022-09-27T22:22:15.702Z,10.50
2022-09-27T22:24:18.138Z,10.53
2022-09-27T22:26:22.842Z,10.55
2022-09-27T22:28:25.627Z,10.54
2022-09-27T22:30:27.564Z,10.50
2022-09-27T22:32:29.503Z,10.54
2022-09-27T22:34:31.573Z,10.56
2022-09-27T22:36:34.343Z,10.55
2022-09-27T22:38:36.253Z,10.48
2022-09-27T22:40:38.247Z,10.53
2022-09-27T22:42:40.312Z,10.52
2022-09-27T22:44:42.284Z,10.53
2022-09-27T22:46:44.402Z,10.52
2022-09-27T22:48:46.433Z,10.53
2022-09-27T22:50:48.415Z,10.55
2022-09-27T22:52:50.377Z,10.55
2022-09-27T22:54:52.634Z,10.53
2022-09-27T22:56:57.389Z,10.54
2022-09-27T22:58:59.496Z,10.51
2022-09-27T23:01:13.968Z,10.48
2022-09-27T23:03:15.934Z,10.54
2022-09-27T23:05:17.883Z,10.52
2022-09-27T23:07:19.977Z,10.49
2022-09-27T23:09:21.974Z,10.51
2022-09-27T23:11:24.001Z,10.50
2022-09-27T23:13:30.452Z,10.49
2022-09-27T23:15:32.999Z,10.51
2022-09-27T23:17:34.937Z,10.51
2022-09-27T23:19:37.587Z,10.51
2022-09-27T23:21:39.526Z,10.48
2022-09-27T23:23:44.923Z,10.43
2022-09-27T23:25:46.943Z,10.47
2022-09-27T23:27:52.931Z,10.47
2022-09-27T23:29:54.952Z,10.42
2022-09-27T23:31:56.927Z,10.42
2022-09-27T23:34:01.912Z,10.48
2022-09-27T23:36:04.874Z,10.50
2022-09-27T23:38:07.024Z,10.46
2022-09-27T23:40:09.928Z,10.47
2022-09-27T23:42:11.932Z,10.45
2022-09-27T23:44:15.570Z,10.44
2022-09-27T23:46:18.563Z,10.43
2022-09-27T23:48:20.821Z,10.45
2022-09-27T23:50:22.761Z,10.46
2022-09-27T23:52:24.945Z,10.38
2022-09-27T23:54:27.903Z,10.33
2022-09-27T23:56:29.872Z,10.35
2022-09-27T23:58:36.094Z,10.28
